Flight Track Log - Related Links

Times and Time Zones

All times are in EDT time to prevent confusion due to time zone crossing. See the UAL495 flight status page for this flight to view local times or setup timezone preferences in your user account.

Time Position Orientation Groundspeed Altitude Reporting Facility
EDT Latitude Longitude Course Direction KTS MPH feet Rate Location/Type
Sun 08:54:55 AM 33.9344 -118.4369 90° East 183 211 1,400  Level Los Angeles Center
Sun 08:55:55 AM 33.9008 -118.4981 236° Southwest 227 261 3,800 2,628 Climbing Los Angeles Center
Sun 08:56:56 AM 33.8383 -118.5297 203° Southwest 265 305 6,700 2,678 Climbing Los Angeles Center
Sun 08:57:00 AM 33.7666 -118.6221 132° Southeast  Level FlightAware Approximate
Sun 08:57:56 AM 33.7633 -118.5253 177° South 285 328 9,200  Level Los Angeles Center
Sun 08:58:00 AM 33.6827 -118.5131 101° East  Level FlightAware Approximate
Sun 08:58:56 AM 33.6853 -118.4967 163° South 318 366 11,500  Level Los Angeles Center
Sun 08:59:00 AM 33.6484 -118.3710 116° Southeast  Level FlightAware Approximate
Sun 08:59:57 AM 33.6758 -118.3894 96° East 343 395 13,900  Level Los Angeles Center
Sun 09:00:00 AM 33.6333 -118.2261 90° East  Level FlightAware Approximate
Sun 09:00:58 AM 33.7119 -118.2781 69° East 373 429 15,200  Level Los Angeles Center
Sun 09:01:58 AM 33.7608 -118.1272 69° East 412 474 17,700 2,400 Climbing Los Angeles Center
Sun 09:02:58 AM 33.8267 -118.0136 55° Northeast 422 486 20,000 1,934 Climbing Los Angeles Center
Sun 09:03:59 AM 33.9219 -117.9303 36° Northeast 425 489 21,600 1,587 Climbing Los Angeles Center
Sun 09:04:59 AM 34.0192 -117.8392 38° Northeast 438 504 23,200 2,000 Climbing Los Angeles Center
Sun 09:05:59 AM 34.1161 -117.7436 39° Northeast 449 517 25,600 1,934 Climbing Los Angeles Center
Sun 09:07:00 AM 34.1994 -117.6258 49° Northeast 462 532 27,100 1,240 Climbing Los Angeles Center
Sun 09:08:00 AM 34.2867 -117.5067 48° Northeast 472 543 28,100 1,150 Climbing Los Angeles Center
Sun 09:09:00 AM 34.3767 -117.3844 48° Northeast 484 557 29,400 1,537 Climbing Los Angeles Center
Sun 09:10:01 AM 34.4694 -117.2583 48° Northeast 482 555 31,200 1,587 Climbing Los Angeles Center
Sun 09:11:01 AM 34.5569 -117.1389 48° Northeast 478 550 32,600 1,350 Climbing Los Angeles Center
Sun 09:12:01 AM 34.6447 -117.0178 49° Northeast 480 552 33,900 1,289 Climbing Los Angeles Center
Sun 09:13:02 AM 34.7311 -116.8969 49° Northeast 478 550 35,200 1,128 Climbing Los Angeles Center
Sun 09:14:14 AM 34.8164 -116.7781 49° Northeast 472 543 36,400 812 Climbing Los Angeles Center
Sun 09:15:15 AM 34.9200 -116.6328 49° Northeast 475 547 37,000 298 Climbing Los Angeles Center
Sun 09:16:15 AM 35.0103 -116.5139 47° Northeast 480 552 37,000  Level Los Angeles Center
Sun 09:17:16 AM 35.1039 -116.3981 45° Northeast 481 554 37,000  Level Los Angeles Center
Sun 09:18:16 AM 35.1769 -116.3061 46° Northeast 477 549 37,000  Level Los Angeles Center
Sun 09:19:17 AM 35.2872 -116.1686 45° Northeast 474 545 37,000  Level Los Angeles Center
Sun 09:20:17 AM 35.3764 -116.0536 46° Northeast 469 540 37,000  Level Los Angeles Center
Sun 09:21:18 AM 35.4667 -115.9408 45° Northeast 467 537 37,000  Level Los Angeles Center
Sun 09:22:18 AM 35.5614 -115.8239 45° Northeast 466 536 37,000  Level Los Angeles Center
Sun 09:23:19 AM 35.6503 -115.7094 46° Northeast 464 534 37,000  Level Los Angeles Center
Sun 09:24:20 AM 35.7397 -115.5961 46° Northeast 464 534 37,000  Level Los Angeles Center
Sun 09:25:20 AM 35.8289 -115.4825 46° Northeast 464 534 37,000  Level Los Angeles Center
Sun 09:26:21 AM 35.9347 -115.3478 46° Northeast 460 529 37,000  Level Los Angeles Center
Sun 09:27:21 AM 36.0189 -115.2300 49° Northeast 467 537 37,000  Level Los Angeles Center
Sun 09:28:22 AM 36.0894 -115.0942 57° Northeast 476 548 37,000  Level Los Angeles Center
Sun 09:29:23 AM 36.1494 -114.9514 62° Northeast 473 544 37,000  Level Los Angeles Center
Sun 09:30:23 AM 36.2022 -114.7994 67° East 479 551 37,000  Level Los Angeles Center
Sun 09:31:24 AM 36.2561 -114.6478 66° East 482 555 37,000  Level Los Angeles Center
Sun 09:32:25 AM 36.3089 -114.4961 67° East 481 554 37,000  Level Los Angeles Center
Sun 09:33:25 AM 36.3625 -114.3433 66° East 484 557 37,000  Level Los Angeles Center
Sun 09:34:26 AM 36.4156 -114.1894 67° East 485 558 37,000  Level Los Angeles Center
Sun 09:35:27 AM 36.4683 -114.0347 67° East 486 559 37,000  Level Los Angeles Center
Sun 09:36:27 AM 36.5264 -113.8639 67° East 487 560 37,000  Level Los Angeles Center
Sun 09:37:28 AM 36.5797 -113.7097 67° East 488 562 37,000  Level Los Angeles Center
Sun 09:38:29 AM 36.6322 -113.5550 67° East 488 562 37,000  Level Los Angeles Center
Sun 09:39:30 AM 36.6850 -113.3994 67° East 489 563 37,000  Level Los Angeles Center
Sun 09:40:30 AM 36.7378 -113.2442 67° East 489 563 37,000  Level Los Angeles Center
Sun 09:41:31 AM 36.7900 -113.0872 67° East 493 567 37,000  Level Los Angeles Center
Sun 09:42:32 AM 36.8414 -112.9319 67° East 489 563 37,000  Level Los Angeles Center
Sun 09:43:33 AM 36.8944 -112.7750 67° East 494 568 37,000  Level Los Angeles Center
Sun 09:44:34 AM 36.9453 -112.6178 68° East 493 567 37,000  Level Los Angeles Center
Sun 09:45:35 AM 37.0072 -112.4294 68° East 492 566 37,000  Level Los Angeles Center
Sun 09:46:35 AM 37.0578 -112.2700 68° East 496 571 37,000  Level Los Angeles Center
Sun 09:47:36 AM 37.1097 -112.1136 67° East 492 566 37,000  Level Los Angeles Center
Sun 09:48:37 AM 37.1603 -111.9542 68° East 495 570 37,000  Level Los Angeles Center
Sun 09:49:38 AM 37.2111 -111.7944 68° East 496 571 37,000  Level Los Angeles Center
Sun 09:50:07 AM 37.2342 -111.7300 66° East 497 572 37,000  Level Denver Center
Sun 09:51:08 AM 37.2814 -111.5706 70° East 495 570 37,000  Level Denver Center
Sun 09:52:09 AM 37.3433 -111.3781 68° East 499 574 37,000  Level Denver Center
Sun 09:53:10 AM 37.3942 -111.2158 68° East 501 577 37,000  Level Denver Center
Sun 09:54:11 AM 37.4461 -111.0522 68° East 503 579 37,000  Level Denver Center
Sun 09:55:12 AM 37.4958 -110.8911 69° East 500 575 37,000  Level Denver Center
Sun 09:56:12 AM 37.5447 -110.7267 69° East 503 579 37,000 -248 Level Denver Center
Sun 09:57:13 AM 37.5950 -110.5642 69° East 500 575 36,500 -984 Descending Denver Center
Sun 09:58:14 AM 37.6483 -110.3872 69° East 504 580 35,000 -732 Descending Denver Center
Sun 09:59:16 AM 37.6969 -110.2269 69° East 510 587 35,000  Level Denver Center
Sun 10:00:17 AM 37.7453 -110.0644 69° East 514 592 35,000  Level Denver Center
Sun 10:01:18 AM 37.8017 -109.8753 69° East 515 593 35,000  Level Denver Center
Sun 10:02:19 AM 37.8500 -109.7131 69° East 515 593 35,000  Level Denver Center
Sun 10:03:20 AM 37.9058 -109.5236 69° East 514 592 35,000  Level Denver Center
Sun 10:04:33 AM 37.9611 -109.3328 70° East 517 595 35,000  Level Denver Center
Sun 10:05:35 AM 38.0164 -109.1428 70° East 515 593 35,000  Level Denver Center
Sun 10:06:36 AM 38.0619 -108.9831 70° East 518 596 35,000  Level Denver Center
Sun 10:07:37 AM 38.1097 -108.8167 70° East 523 602 35,000  Level Denver Center
Sun 10:08:38 AM 38.1647 -108.6231 70° East 522 601 35,000  Level Denver Center
Sun 10:09:40 AM 38.2122 -108.4567 70° East 523 602 35,000  Level Denver Center
Sun 10:10:41 AM 38.2667 -108.2625 70° East 522 601 35,000  Level Denver Center
Sun 10:11:42 AM 38.3133 -108.0969 70° East 523 602 35,000  Level Denver Center
Sun 10:12:44 AM 38.3672 -107.9031 70° East 522 601 35,000  Level Denver Center
Sun 10:13:45 AM 38.4131 -107.7347 71° East 525 604 35,000  Level Denver Center
Sun 10:14:47 AM 38.4617 -107.5719 69° East 517 595 35,000  Level Denver Center
Sun 10:15:48 AM 38.5392 -107.3989 60° Northeast 504 580 35,000 -295 Level Denver Center
Sun 10:16:49 AM 38.6039 -107.2528 60° Northeast 498 573 34,400 -1,512 Descending Denver Center
Sun 10:17:51 AM 38.6747 -107.0953 60° Northeast 489 563 31,900 -2,049 Descending Denver Center
Sun 10:18:52 AM 38.7389 -106.9486 61° Northeast 472 543 30,200 -1,610 Descending Denver Center
Sun 10:19:54 AM 38.8006 -106.8114 60° Northeast 448 516 28,600 -1,854 Descending Denver Center
Sun 10:20:55 AM 38.8617 -106.6772 60° Northeast 438 504 26,400 -1,512 Descending Denver Center
Sun 10:21:57 AM 38.9258 -106.5364 60° Northeast 430 495 25,500 -1,065 Descending Denver Center
Sun 10:22:59 AM 38.9906 -106.3928 60° Northeast 417 480 24,200 -1,268 Descending Denver Center
Sun 10:24:00 AM 39.0456 -106.2708 60° Northeast 413 475 22,900 -976 Descending Denver Center
Sun 10:25:02 AM 39.1025 -106.1433 60° Northeast 405 466 22,200 -634 Descending Denver Center
Sun 10:26:03 AM 39.1594 -106.0144 60° Northeast 407 468 21,600 -1,171 Descending Denver Center
Sun 10:27:05 AM 39.2153 -105.8914 60° Northeast 396 456 19,800 -1,258 Descending Denver Center
Sun 10:28:07 AM 39.2686 -105.7683 61° Northeast 391 450 19,000 -390 Descending Denver Center
Sun 10:29:08 AM 39.3308 -105.6264 60° Northeast 387 445 19,000 -146 Level Denver Center
Sun 10:30:10 AM 39.3828 -105.5072 61° Northeast 380 437 18,700 -774 Descending Denver Center
Sun 10:31:12 AM 39.3992 -105.3892 80° East 348 400 17,400 -1,355 Descending Denver Center
Sun 10:32:14 AM 39.4047 -105.2603 87° East 333 383 15,900 -1,415 Descending Denver Center
Sun 10:33:15 AM 39.4094 -105.1464 87° East 318 366 14,500 -1,368 Descending Denver Center
Sun 10:34:30 AM 39.4156 -105.0103 87° East 312 359 12,800 -1,103 Descending Denver Center
Sun 10:35:31 AM 39.4472 -104.9044 69° East 292 336 12,000 -829 Descending Denver Center
Sun 10:36:33 AM 39.4914 -104.8206 56° Northeast 279 321 11,100 -1,258 Descending Denver Center
Sun 10:37:35 AM 39.5606 -104.7725 28° Northeast 280 322 9,400 -1,065 Descending Denver Center
Sun 10:38:37 AM 39.6350 -104.7294 24° Northeast 266 306 8,900 -484 Descending Denver Center

Login

Don't have an account? Register now (free) for customized features, flight alerts, and more!